Extreme weather reports worldwide

Highest temperatures

Station
 
Location
 
Name
 
Wind
Knots
Gust
Knots
Vis
SM
Temp/Dew
C
Baro
inHg
METAR
 
EBM DTTR El Borma, TN El Borma Airport 16 48/-1 29.85 DTTR 151400Z 27016KT 240V300 9999 SCT026 48/M01 Q1011 RMK SIROCCO
BSK DAUB Biskra, DZ Biskra Airport 3 46/11 29.79 DAUB 151400Z 10003KT CAVOK 46/11 Q1009
TGR DAUK Touggourt, DZ Touggourt Sidi Madhi Airport 8 46/7 29.79 DAUK 151400Z 29008KT CAVOK 46/07 Q1009
OKKK 12 46/7 29.41 OKKK 151400Z 35012KT CAVOK 46/07 Q0996 NOSIG
ELU DAUO Guemar, DZ Guemar Airport 3 45/12 29.79 DAUO 151400Z VRB03KT CAVOK 45/12 Q1009

Station
 
Location
 
Name
 
Wind
Knots
Gust
Knots
Vis
SM
Temp/Dew
C
Baro
inHg
METAR
 
ABD OIAA Abadan, IR Abadan Airport 12 45/9 29.41 OIAA 151400Z 31012KT CAVOK 45/09 Q0996
AKW OIAG Aghajari, IR Aghajari Airport 16 45/9 29.38 OIAG 151400Z 30016KT CAVOK 45/09 Q0995
OICM 6 45/11 29.38 OICM 151400Z 30006KT CAVOK 45/11 Q0995
OOAD 6 45/14 29.41 OOAD 151450Z AUTO 26006KT 9999 // NCD 45/14 Q0996 NOSIG
OZG GMAZ Zagora, MA Zagora Airport 11 45/-4 29.94 GMAZ 151500Z 19011KT 160V280 CAVOK 45/M04 Q1014 NOSIG
IHR OIZI Iranshahr, IR Iran Shahr Airport 4 45/11 29.44 OIZI 151500Z 25004KT CAVOK 45/11 Q0997
JIB HDAM Djibouti City, DJ Djibouti-Ambouli Airport 7 3.11 44/20 HDAM 151400Z 33007KT 5000 HZ SCT133 44/20 Q999
OKAS KW Ali Al Salem Air Base 9 44/2 29.45 OKAS 151455Z AUTO 34009KT 9999 CLR 44/03 A2945 RMK AO2 SLP966 T04420025 55002 $
HOF OEAH SA Al Ahsa Airport 13 44/-2 29.44 OEAH 151500Z 35013KT CAVOK 44/M02 Q0997 NOSIG
WAE OEWD SA Wadi Al Dawasir Airport 6 44/-3 29.56 OEWD 151500Z 33006KT CAVOK 44/M03 Q1001
MRX OIAM IR Mahshahr Airport 10 44/12 29.38 OIAM 151500Z 32010KT CAVOK 44/12 Q0995
AWZ OIAW Ahwaz, IR Ahwaz Airport 8 44/9 29.38 OIAW 151500Z 29008KT CAVOK 44/09 Q0995
BSR ORMM Basrah, IQ Basrah International Airport 12 44/7 29.38 ORMM 151500Z 33012KT CAVOK 44/07 Q0995 NOSIG
KQD3 5 5.59 43/16 29.52 KQD3 151355Z 30005KT 9000 HZ FEW100 44/16 A2952 RMK AO2A SLP980 WND DATA ESTMD T04390162
DTTD Remada, TN Remada Air Base 6 43/14 29.85 DTTD 151400Z 05006KT 350V110 CAVOK 43/14 Q1011 RMK SIROCCO
GAF DTTF Gafsa, TN Gafsa Ksar International Airport 5 4.97 43/12 29.88 DTTF 151400Z 09005KT 010V170 8000 NSC 43/12 Q1012 RMK SIROCCO NOSIG
TOE DTTZ Tozeur, TN Tozeur Nefta International Airport 17 4.35 43/12 29.79 DTTZ 151400Z 09017KT 7000 NSC 43/12 Q1009
ERH GMFK Errachidia, MA Moulay Ali Cherif Airport 14 43/-8 30.03 GMFK 151500Z 17014KT 9999 FEW033 43/M08 Q1017 NOSIG
SHW OESH SA Sharurah Airport 11 43/2 29.59 OESH 151500Z 36011KT 9999 FEW040 SCT090 43/02 Q1002 NOSIG
NJF ORNI Najaf, IQ Al Najaf International Airport 8 4.97 43/8 29.44 ORNI 151500Z 27008KT 8000 NSC 43/08 Q0997
KQTZ 7 42/14 29.44 KQTZ 151355Z 24007KT 200V310 9999 SKC 42/14 A2944 RMK SLP969
BMW DATM Bordj Badji Mokhtar, DZ Bordj Badji Mokhtar Airport 6 1.86 42/12 29.82 DATM 151400Z 36006KT 320V050 3000 SA NSC 42/12 Q1010
ABS HEBL Abu Simbel, EG Abu Simbel Airport 7 42/5 29.68 HEBL 151400Z 33007KT CAVOK 42/05 Q1005 NOSIG
ASW HESN Aswan, EG Aswan International Airport 8 42/8 29.65 HESN 151400Z 33008KT CAVOK 42/08 Q1004 NOSIG
DIA OTBD Doha, QA Doha International Airport 15 42/11 29.38 OTBD 151430Z AUTO 35015KT CAVOK 42/11 Q0995 NOSIG
AKH OEPS SA Prince Sultan Air Base 10 14 42/1 29.62 OEPS 151455Z AUTO 36010G14KT 9999 CLR 42/01 A2962 RMK AO2 SLP006 WND DATA ESTMD T04240011 55003
XJD OTBH Ar Rayyan, QA Al Udeid Air Base 18 42/-2 29.35 OTBH 151455Z 35018KT 9999 CLR 42/M03 A2938 Q0994 RMK AO2A SLP949 T04211029 53002 FZRANO $
OEKJ 15 42/1 29.62 OEKJ 151500Z 34015KT CAVOK 42/01 Q1003
MED OEMA Medina, SA Prince Mohammad Bin Abdulaziz Airport 7 42/-1 29.68 OEMA 151500Z 25007KT CAVOK 42/M01 Q1005 NOSIG
AQI OEPA Qaisumah, SA Al Qaisumah/Hafr Al Batin Airport 14 42/0 29.53 OEPA 151500Z 33014KT CAVOK 42/00 Q1000 NOSIG
RUH OERK Riyadh, SA King Khaled International Airport 14 42/-1 29.62 OERK 151500Z 33014KT CAVOK 42/M01 Q1003 NOSIG
LRR OISL Lar, IR Lar Airport 12 42/15 29.50 OISL 151500Z 20012KT 9999 FEW035TCU SCT180 42/15 Q0999 A2951 NOSIG
BGW ORBI Baghdad, IQ Baghdad International Airport 9 42/12 29.44 ORBI 151500Z 26009KT CAVOK 42/12 Q0997 NOSIG
DTTK 2 41/10 29.85 DTTK 151400Z VRB02KT CAVOK 41/10 Q1011 SIROCCO
DTTN 8 41/2 29.88 DTTN 151400Z 34008KT CAVOK 41/02 Q1012 SIROCCO
DOH OTHH Doha, QA Hamad International Airport 16 41/15 29.38 OTHH 151400Z 34016KT CAVOK 41/15 Q0995 NOSIG
UAR GMFB Bouarfa, MA Bouarfa Airport 15 4.97 41/1 30.06 GMFB 151500Z 23015KT 8000 SCT030 41/01 Q1018 NOSIG
OEAO 8 41/2 29.65 OEAO 151500Z 24008KT CAVOK 41/02 Q1004 NOSIG
DMM OEDF Ad Dammam, SA King Fahd International Airport 11 41/0 29.41 OEDF 151500Z 03011KT CAVOK 41/00 Q0996 NOSIG
DWD OEDM Dawadmi, SA King Salman Abdulaziz Airport 10 41/-2 29.68 OEDM 151500Z 02010KT CAVOK 41/M02 Q1005
ELQ OEGS SA Gassim Airport 5 41/2 29.62 OEGS 151500Z 01005KT CAVOK 41/02 Q1003
LFM OISR Lamerd, IR Lamerd Airport 6 2.8 41/24 29.44 OISR 151500Z 27006KT 4500 HZ NSC 41/24 Q0997 A2946 NOSIG
AQJ OJAQ Aqaba, JO Aqaba King Hussein International Airport 12 41/12 29.59 OJAQ 151500Z 36012KT CAVOK 41/12 Q1002 NOSIG
KAC OSKL Qamishly, SY Qamishli Airport 41/7 OSKL 151500Z XXXXXKT CAVOL 41/07 Q989
CFK DAOI DZ Ech Cheliff Airport 9 40/2 29.94 DAOI 151400Z 27009KT CAVOK 40/02 Q1014